Time;durP1;ratioP1;P1;durP2;ratioP2;P2;SDS_P1;SDS_P2;PMS_P1;PMS_P2;Temp;Humidity;BMP_temperature;BMP_pressure;BME280_temperature;BME280_humidity;BME280_pressure;Samples;Min_cycle;Max_cycle;Signal;HPM_P1;HPM_P2
2022/08/04 00:00:08;;;;;;;6.43;2.95;;;21.40;99.90;;;;;;5093170;28;20072;-68
2022/08/04 00:03:11;;;;;;;6.82;2.90;;;21.40;99.90;;;;;;5091906;28;20028;-71
2022/08/04 00:06:03;;;;;;;8.40;3.00;;;21.40;99.90;;;;;;5091888;28;20295;-69
2022/08/04 00:08:45;;;;;;;6.53;3.33;;;21.40;99.90;;;;;;5092847;28;20028;-68
2022/08/04 00:11:14;;;;;;;9.13;4.07;;;21.40;99.90;;;;;;5093385;28;20078;-69
2022/08/04 00:13:43;;;;;;;12.10;5.38;;;21.40;99.90;;;;;;5093225;28;20024;-66
2022/08/04 00:16:11;;;;;;;7.93;3.28;;;21.40;99.90;;;;;;5093475;28;20063;-67
2022/08/04 00:18:44;;;;;;;8.57;3.78;;;21.40;99.90;;;;;;5093414;28;20016;-68
2022/08/04 00:21:14;;;;;;;8.57;3.65;;;21.40;99.90;;;;;;5092314;28;20031;-67
2022/08/04 00:23:43;;;;;;;7.07;2.85;;;21.40;99.90;;;;;;5092376;28;20537;-66
2022/08/04 00:26:10;;;;;;;8.30;3.33;;;21.40;99.90;;;;;;5093425;28;20076;-69
2022/08/04 00:28:41;;;;;;;12.70;3.17;;;21.40;99.90;;;;;;5092802;28;20385;-69
2022/08/04 00:31:09;;;;;;;15.13;3.80;;;21.40;99.90;;;;;;5094005;28;20016;-68
2022/08/04 00:33:36;;;;;;;8.50;2.67;;;21.40;99.90;;;;;;5092073;28;20051;-68
2022/08/04 00:36:03;;;;;;;10.65;3.60;;;21.50;99.90;;;;;;5094731;28;20024;-68
2022/08/04 00:38:29;;;;;;;6.40;2.85;;;21.40;99.90;;;;;;5095013;28;20020;-68
2022/08/04 00:41:13;;;;;;;6.70;3.22;;;21.40;99.90;;;;;;5094602;28;20099;-67
2022/08/04 00:43:48;;;;;;;8.18;3.65;;;21.50;99.90;;;;;;5094393;28;20536;-69
2022/08/04 00:46:23;;;;;;;10.98;4.85;;;21.50;99.90;;;;;;5094552;28;20088;-67
2022/08/04 00:48:57;;;;;;;11.07;4.72;;;21.50;99.90;;;;;;5094402;28;20085;-69
2022/08/04 00:51:32;;;;;;;9.50;4.47;;;21.50;99.90;;;;;;5094486;28;20028;-68
2022/08/04 00:54:32;;;;;;;9.80;4.15;;;21.50;99.90;;;;;;5094068;28;20051;-67
2022/08/04 00:57:13;;;;;;;11.85;4.97;;;21.50;99.90;;;;;;5094137;28;20605;-68
2022/08/04 01:00:00;;;;;;;15.90;5.22;;;21.40;99.90;;;;;;5093765;28;20032;-70
2022/08/04 01:02:39;;;;;;;12.35;3.50;;;21.50;99.90;;;;;;5094128;28;20053;-67
2022/08/04 01:05:33;;;;;;;10.63;3.50;;;21.40;99.90;;;;;;5092765;28;20412;-68
2022/08/04 01:08:15;;;;;;;8.82;3.25;;;21.30;99.90;;;;;;5093893;28;20040;-68
2022/08/04 01:11:01;;;;;;;9.05;3.13;;;21.30;99.90;;;;;;5094095;28;20027;-66
2022/08/04 01:13:59;;;;;;;7.75;3.00;;;21.40;99.90;;;;;;5093764;28;20468;-70
2022/08/04 01:16:26;;;;;;;12.52;3.50;;;21.30;99.90;;;;;;5094192;28;20032;-71
2022/08/04 01:19:40;;;;;;;10.68;3.30;;;21.30;99.90;;;;;;5094023;28;20088;-69
2022/08/04 01:22:16;;;;;;;8.95;3.25;;;21.30;99.90;;;;;;5075486;28;20145;-67
2022/08/04 01:25:28;;;;;;;10.70;3.45;;;21.30;99.90;;;;;;5092058;28;20026;-68
2022/08/04 01:28:24;;;;;;;9.63;3.45;;;21.30;99.90;;;;;;5092242;28;20445;-67
2022/08/04 01:30:56;;;;;;;9.32;4.10;;;21.30;99.90;;;;;;5093711;28;20529;-68
2022/08/04 01:33:23;;;;;;;9.85;3.97;;;21.30;99.90;;;;;;5093296;28;20027;-70
2022/08/04 01:36:03;;;;;;;8.60;3.90;;;21.30;99.90;;;;;;5093619;28;20164;-67
2022/08/04 01:38:38;;;;;;;11.98;3.92;;;21.20;99.90;;;;;;5093478;28;20050;-67
2022/08/04 01:41:06;;;;;;;5.60;3.20;;;21.20;99.90;;;;;;5092866;28;20369;-68
2022/08/04 01:43:38;;;;;;;12.25;3.55;;;21.20;99.90;;;;;;5093371;28;20020;-66
2022/08/04 01:46:04;;;;;;;8.90;3.53;;;21.20;99.90;;;;;;5093076;28;20024;-67
2022/08/04 01:48:31;;;;;;;8.25;3.90;;;21.20;99.90;;;;;;5093126;28;20519;-67
2022/08/04 01:51:03;;;;;;;11.68;4.05;;;21.20;99.90;;;;;;5093055;28;20024;-66
2022/08/04 01:53:34;;;;;;;12.65;3.92;;;21.20;99.90;;;;;;5093005;28;20020;-68
2022/08/04 01:56:01;;;;;;;8.82;4.00;;;21.10;99.90;;;;;;5093200;28;20059;-67
2022/08/04 01:58:29;;;;;;;10.35;4.30;;;21.10;99.90;;;;;;5093071;28;20385;-68
2022/08/04 02:01:02;;;;;;;10.73;4.78;;;21.10;99.90;;;;;;5092580;28;20093;-67
2022/08/04 02:03:29;;;;;;;10.38;3.83;;;21.10;99.90;;;;;;5093159;28;20073;-69
2022/08/04 02:06:20;;;;;;;10.95;4.25;;;21.10;99.90;;;;;;5092290;28;20476;-68
2022/08/04 02:08:50;;;;;;;11.10;4.55;;;21.10;99.90;;;;;;5088135;28;20030;-68
2022/08/04 02:11:20;;;;;;;12.52;4.18;;;21.00;99.90;;;;;;5090512;28;20454;-69
2022/08/04 02:13:53;;;;;;;10.10;3.75;;;21.00;99.90;;;;;;5089286;28;20020;-67
2022/08/04 02:16:40;;;;;;;10.77;3.45;;;20.90;99.90;;;;;;5091536;28;20107;-69
2022/08/04 02:19:32;;;;;;;12.05;4.68;;;20.90;99.90;;;;;;5089447;28;20020;-70
2022/08/04 02:22:20;;;;;;;7.78;3.42;;;20.80;99.90;;;;;;5090487;28;20024;-68
2022/08/04 02:24:49;;;;;;;9.05;3.40;;;20.80;99.90;;;;;;5091598;28;20454;-67
2022/08/04 02:27:18;;;;;;;9.73;4.15;;;20.80;99.90;;;;;;5090741;28;20081;-67
2022/08/04 02:29:54;;;;;;;11.80;4.43;;;20.80;99.90;;;;;;5088893;28;20463;-70
2022/08/04 02:32:26;;;;;;;5.75;3.08;;;20.70;99.90;;;;;;5091386;28;20103;-69
2022/08/04 02:35:08;;;;;;;12.35;3.63;;;20.70;99.90;;;;;;5091553;28;20088;-68
2022/08/04 02:37:34;;;;;;;12.68;3.92;;;20.60;99.90;;;;;;5090024;28;20027;-69
2022/08/04 02:40:05;;;;;;;9.27;3.58;;;20.60;99.90;;;;;;5091244;28;20115;-72
2022/08/04 02:42:32;;;;;;;8.93;3.63;;;20.60;99.90;;;;;;5091233;28;20012;-67
2022/08/04 02:44:59;;;;;;;8.27;4.38;;;20.60;99.90;;;;;;5092034;28;20016;-71
2022/08/04 02:47:26;;;;;;;10.38;3.83;;;20.60;99.90;;;;;;5092477;28;20032;-69
2022/08/04 02:49:53;;;;;;;7.32;3.47;;;20.60;99.90;;;;;;5091828;28;20048;-71
2022/08/04 02:52:20;;;;;;;10.43;4.15;;;20.60;99.90;;;;;;5090617;28;20070;-70
2022/08/04 02:54:52;;;;;;;11.77;4.18;;;20.60;99.90;;;;;;5092542;28;20032;-67
2022/08/04 02:57:22;;;;;;;10.35;4.28;;;20.60;99.90;;;;;;5092039;28;20093;-67
2022/08/04 03:00:18;;;;;;;13.35;3.75;;;20.60;99.90;;;;;;5092278;28;20039;-67
2022/08/04 03:03:19;;;;;;;8.52;3.80;;;20.60;99.90;;;;;;5083447;28;20039;-67
2022/08/04 03:06:24;;;;;;;8.90;3.38;;;20.60;99.90;;;;;;5092450;28;20020;-70
2022/08/04 03:09:08;;;;;;;11.85;3.88;;;20.60;99.90;;;;;;5092870;28;20028;-68
2022/08/04 03:11:46;;;;;;;9.07;3.70;;;20.60;99.90;;;;;;5092477;28;20027;-71
2022/08/04 03:14:22;;;;;;;8.52;3.83;;;20.60;99.90;;;;;;5092081;28;20080;-67
2022/08/04 03:17:18;;;;;;;6.95;3.28;;;20.60;99.90;;;;;;5092497;28;20028;-71
2022/08/04 03:20:12;;;;;;;7.57;3.42;;;20.60;99.90;;;;;;5092354;28;20028;-67
2022/08/04 03:23:02;;;;;;;8.57;3.65;;;20.60;99.90;;;;;;5092468;28;20024;-67
2022/08/04 03:25:40;;;;;;;12.13;4.10;;;20.60;99.90;;;;;;5091866;28;20020;-71
2022/08/04 03:28:42;;;;;;;10.32;3.60;;;20.60;99.90;;;;;;5091934;28;20471;-68
2022/08/04 03:31:49;;;;;;;8.50;3.50;;;20.60;99.90;;;;;;5096198;28;20028;-68
2022/08/04 03:34:42;;;;;;;7.70;3.38;;;20.60;99.90;;;;;;5096092;28;20043;-67
2022/08/04 03:37:45;;;;;;;9.80;4.78;;;20.60;99.90;;;;;;5095913;28;20053;-68
2022/08/04 03:40:44;;;;;;;11.88;3.55;;;20.60;99.90;;;;;;5095965;28;20032;-66
2022/08/04 03:43:30;;;;;;;10.45;3.50;;;20.60;99.90;;;;;;5095644;28;20028;-69
2022/08/04 03:46:27;;;;;;;15.80;4.50;;;20.60;99.90;;;;;;5095782;28;20146;-66
2022/08/04 03:49:40;;;;;;;10.25;4.20;;;20.60;99.90;;;;;;5095891;28;20110;-66
2022/08/04 03:55:42;;;;;;;10.10;3.70;;;20.60;99.90;;;;;;5095305;28;20442;-70
2022/08/04 03:58:42;;;;;;;8.80;4.13;;;20.60;99.90;;;;;;5095446;28;20055;-68
2022/08/04 04:01:28;;;;;;;8.30;3.67;;;20.60;99.90;;;;;;5095545;28;20091;-68
2022/08/04 04:04:20;;;;;;;9.65;3.63;;;20.50;99.90;;;;;;5095124;28;20363;-67
2022/08/04 04:07:04;;;;;;;12.80;3.75;;;20.50;99.90;;;;;;5095522;28;20030;-68
2022/08/04 04:09:57;;;;;;;9.00;3.40;;;20.50;99.90;;;;;;5095346;28;20024;-70
2022/08/04 04:12:33;;;;;;;7.53;3.50;;;20.50;99.90;;;;;;5093937;28;20046;-68
2022/08/04 04:15:17;;;;;;;10.70;4.20;;;20.50;99.90;;;;;;5095381;28;20039;-68
2022/08/04 04:17:58;;;;;;;9.80;3.72;;;20.50;99.90;;;;;;5095060;28;20399;-68
2022/08/04 04:21:09;;;;;;;7.18;3.60;;;20.50;99.90;;;;;;5095196;28;20100;-68
2022/08/04 04:23:37;;;;;;;8.88;3.70;;;20.50;99.90;;;;;;5094835;28;20429;-71
2022/08/04 04:26:20;;;;;;;10.82;3.95;;;20.50;99.90;;;;;;5094919;28;20034;-69
2022/08/04 04:29:02;;;;;;;7.28;3.58;;;20.50;99.90;;;;;;5094872;28;20081;-67
2022/08/04 04:31:47;;;;;;;10.10;4.07;;;20.50;99.90;;;;;;5094965;28;20091;-68
2022/08/04 04:34:39;;;;;;;9.50;3.47;;;20.50;99.90;;;;;;5094979;28;20033;-68
2022/08/04 04:37:26;;;;;;;15.20;4.15;;;20.40;99.90;;;;;;5094744;28;20023;-69
2022/08/04 04:39:55;;;;;;;9.75;3.70;;;20.50;99.90;;;;;;5094657;28;20073;-71
2022/08/04 04:42:49;;;;;;;9.23;3.50;;;20.40;99.90;;;;;;5094322;28;20037;-71
2022/08/04 04:45:25;;;;;;;10.43;3.83;;;20.50;99.90;;;;;;5094143;28;20043;-67
2022/08/04 04:48:01;;;;;;;9.75;3.30;;;20.50;99.90;;;;;;5094346;28;20024;-71
2022/08/04 04:50:44;;;;;;;9.63;3.40;;;20.50;99.90;;;;;;5094599;28;20023;-73
2022/08/04 04:53:12;;;;;;;10.57;3.30;;;20.60;99.90;;;;;;5094283;28;20016;-67
2022/08/04 04:55:59;;;;;;;7.25;3.22;;;20.70;99.90;;;;;;5094408;28;20031;-68
2022/08/04 04:58:27;;;;;;;7.47;2.95;;;20.70;99.90;;;;;;5094169;28;20123;-67
2022/08/04 05:01:07;;;;;;;8.75;3.35;;;20.70;99.90;;;;;;5094218;28;20137;-68
2022/08/04 05:04:10;;;;;;;10.15;3.03;;;20.80;99.90;;;;;;5093249;28;20354;-70
2022/08/04 05:06:44;;;;;;;5.43;2.55;;;20.80;99.90;;;;;;5094456;28;20024;-67
2022/08/04 05:09:45;;;;;;;9.82;2.83;;;20.90;99.90;;;;;;5093963;28;20052;-67
2022/08/04 05:12:10;;;;;;;6.40;2.88;;;20.90;99.90;;;;;;5094366;28;20411;-70
2022/08/04 05:14:45;;;;;;;11.18;2.97;;;20.90;99.90;;;;;;5094354;28;20020;-70
2022/08/04 05:17:26;;;;;;;7.53;3.10;;;21.00;99.90;;;;;;5093880;28;20378;-68
2022/08/04 05:19:52;;;;;;;11.77;2.83;;;21.10;99.90;;;;;;5093690;28;20020;-68
2022/08/04 05:22:38;;;;;;;10.73;2.90;;;21.20;99.90;;;;;;5094113;28;20357;-66
2022/08/04 05:25:24;;;;;;;6.75;2.65;;;21.20;99.90;;;;;;5094185;28;20103;-68
2022/08/04 05:27:59;;;;;;;7.05;2.90;;;21.30;99.90;;;;;;5093924;28;20039;-69
2022/08/04 05:30:27;;;;;;;6.80;2.47;;;21.30;99.90;;;;;;5094121;28;20109;-70
2022/08/04 05:32:59;;;;;;;8.45;2.65;;;21.40;99.90;;;;;;5094135;28;20027;-68
2022/08/04 05:35:30;;;;;;;7.10;2.50;;;21.50;99.90;;;;;;5094233;28;20051;-71
2022/08/04 05:37:58;;;;;;;10.65;2.72;;;21.50;99.90;;;;;;5093830;28;20038;-70
2022/08/04 05:40:25;;;;;;;11.93;2.40;;;21.60;99.90;;;;;;5093850;28;20020;-68
2022/08/04 05:42:53;;;;;;;8.23;2.45;;;21.70;99.90;;;;;;5093866;28;20021;-68
2022/08/04 05:45:19;;;;;;;7.70;2.30;;;21.70;99.90;;;;;;5093989;28;20056;-68
2022/08/04 05:47:46;;;;;;;9.65;2.65;;;21.70;99.90;;;;;;5092109;28;20032;-70
2022/08/04 05:50:13;;;;;;;7.93;2.40;;;21.80;99.90;;;;;;5093829;28;20112;-69
2022/08/04 05:52:40;;;;;;;17.10;2.85;;;21.80;99.90;;;;;;5093121;28;20024;-69
2022/08/04 05:55:08;;;;;;;14.00;2.67;;;21.90;99.90;;;;;;5093845;28;20020;-71
2022/08/04 05:57:34;;;;;;;12.77;4.90;;;21.90;99.90;;;;;;5093424;28;20040;-70
2022/08/04 06:00:03;;;;;;;10.02;2.72;;;21.90;99.90;;;;;;5093539;28;20095;-69
2022/08/04 06:02:30;;;;;;;12.10;2.45;;;22.00;99.90;;;;;;5093288;28;20107;-66
2022/08/04 06:04:58;;;;;;;12.15;2.63;;;22.00;99.90;;;;;;5093509;28;20020;-70
2022/08/04 06:07:25;;;;;;;7.93;2.90;;;22.10;99.90;;;;;;5093351;28;20349;-67
2022/08/04 06:09:51;;;;;;;9.05;2.53;;;22.10;99.90;;;;;;5093034;28;20578;-66
2022/08/04 06:12:37;;;;;;;9.25;2.38;;;22.10;99.90;;;;;;5093279;28;20053;-66
2022/08/04 06:15:05;;;;;;;9.02;2.40;;;22.20;99.90;;;;;;5093168;28;20518;-67
2022/08/04 06:17:45;;;;;;;5.68;2.47;;;22.30;99.90;;;;;;5092936;28;20060;-68
2022/08/04 06:20:13;;;;;;;6.55;1.90;;;22.40;99.90;;;;;;5093034;28;20069;-69
2022/08/04 06:22:41;;;;;;;6.70;2.00;;;22.40;99.90;;;;;;5092837;28;20346;-69
2022/08/04 06:25:09;;;;;;;7.97;2.42;;;22.50;99.90;;;;;;5093021;28;20481;-66
2022/08/04 06:27:36;;;;;;;6.18;2.17;;;22.50;99.90;;;;;;5093023;28;20061;-66
2022/08/04 06:30:05;;;;;;;7.80;2.47;;;22.70;99.90;;;;;;5093078;28;20081;-67
2022/08/04 06:32:46;;;;;;;8.82;2.38;;;22.90;99.90;;;;;;5092507;28;20024;-67
2022/08/04 06:35:17;;;;;;;7.82;2.50;;;23.30;99.90;;;;;;5093085;28;20020;-66
2022/08/04 06:37:45;;;;;;;10.77;2.30;;;24.00;99.90;;;;;;5092720;28;20077;-67
2022/08/04 06:40:16;;;;;;;5.13;1.58;;;24.70;99.90;;;;;;5092993;28;20012;-66
2022/08/04 06:42:43;;;;;;;8.77;1.70;;;25.60;99.90;;;;;;5092964;28;20036;-67
2022/08/04 06:45:10;;;;;;;6.75;1.80;;;26.60;99.90;;;;;;5093000;28;20035;-67
2022/08/04 06:47:38;;;;;;;6.10;1.63;;;27.30;99.90;;;;;;5092622;28;20024;-67
2022/08/04 06:50:05;;;;;;;7.97;1.50;;;27.70;99.90;;;;;;5092589;28;20410;-70
2022/08/04 06:52:30;;;;;;;5.50;2.10;;;27.90;99.90;;;;;;5092417;28;20123;-67
2022/08/04 06:54:56;;;;;;;7.28;1.80;;;28.20;99.90;;;;;;5092221;28;20120;-72
2022/08/04 06:57:26;;;;;;;6.82;1.95;;;28.30;99.90;;;;;;5081343;28;20041;-67
2022/08/04 07:00:04;;;;;;;6.38;1.70;;;28.30;99.90;;;;;;5083699;28;20023;-71
2022/08/04 07:02:37;;;;;;;8.77;1.90;;;28.40;99.90;;;;;;5091827;28;20107;-69
2022/08/04 07:05:05;;;;;;;5.07;2.00;;;29.00;99.80;;;;;;5094466;28;20039;-71
2022/08/04 07:07:31;;;;;;;5.63;1.73;;;29.60;98.60;;;;;;5095626;28;20147;-68
2022/08/04 07:09:56;;;;;;;7.07;2.00;;;29.80;97.90;;;;;;5095956;28;20213;-68
2022/08/04 07:12:24;;;;;;;4.75;2.08;;;30.10;97.20;;;;;;5095773;28;20023;-69
2022/08/04 07:14:50;;;;;;;10.70;2.40;;;30.10;97.00;;;;;;5095592;28;20024;-70
2022/08/04 07:17:17;;;;;;;7.68;2.53;;;30.10;96.40;;;;;;5096616;28;20028;-68
2022/08/04 07:19:43;;;;;;;7.65;1.80;;;30.20;96.20;;;;;;5096325;28;20028;-70
2022/08/04 07:22:09;;;;;;;7.35;1.80;;;30.30;95.80;;;;;;5096060;28;20141;-66
2022/08/04 07:24:37;;;;;;;3.92;2.10;;;30.30;95.70;;;;;;5096214;28;20020;-68
2022/08/04 07:27:04;;;;;;;8.25;1.85;;;30.50;95.10;;;;;;5096225;28;20033;-66
2022/08/04 07:29:31;;;;;;;5.30;2.42;;;30.20;95.00;;;;;;5094915;28;20027;-66
2022/08/04 07:31:58;;;;;;;5.47;1.63;;;29.90;95.30;;;;;;5096171;28;20024;-66
2022/08/04 07:34:25;;;;;;;4.97;1.73;;;29.70;95.30;;;;;;5096268;28;21116;-66
2022/08/04 07:36:53;;;;;;;8.60;2.20;;;29.50;94.80;;;;;;5095940;28;20020;-68
2022/08/04 07:39:20;;;;;;;8.88;1.75;;;29.20;94.90;;;;;;5095425;28;20175;-66
2022/08/04 07:41:46;;;;;;;8.50;2.60;;;28.90;95.20;;;;;;5095919;28;20124;-68
2022/08/04 07:44:14;;;;;;;6.93;1.95;;;28.70;95.30;;;;;;5096306;28;20104;-66
2022/08/04 07:46:39;;;;;;;10.00;1.90;;;28.40;95.80;;;;;;5096344;28;20024;-66
2022/08/04 07:49:06;;;;;;;6.50;2.03;;;28.20;95.40;;;;;;5096089;28;20032;-68
2022/08/04 07:51:34;;;;;;;3.80;1.52;;;28.00;95.90;;;;;;5096196;28;20016;-67
2022/08/04 07:54:02;;;;;;;3.58;1.55;;;27.90;95.60;;;;;;5095885;28;20024;-69
2022/08/04 07:56:28;;;;;;;5.13;1.80;;;27.80;95.70;;;;;;5087192;28;20031;-68
2022/08/04 07:58:55;;;;;;;5.43;1.63;;;27.80;95.90;;;;;;5075715;28;20028;-67
2022/08/04 08:01:21;;;;;;;6.25;1.80;;;27.90;95.70;;;;;;5075465;28;20338;-67
2022/08/04 08:03:47;;;;;;;5.95;1.80;;;28.20;95.40;;;;;;5075689;28;20042;-69
2022/08/04 08:06:13;;;;;;;12.70;3.33;;;28.40;94.80;;;;;;5074242;28;20389;-67
2022/08/04 08:08:39;;;;;;;9.27;2.45;;;28.70;94.30;;;;;;5074868;28;20462;-67
2022/08/04 08:11:08;;;;;;;6.95;1.33;;;29.20;93.90;;;;;;5075284;28;20021;-67
2022/08/04 08:13:34;;;;;;;8.50;1.95;;;29.70;92.70;;;;;;5075578;28;20020;-68
2022/08/04 08:16:01;;;;;;;4.82;1.35;;;30.40;91.90;;;;;;5074950;28;20698;-68
2022/08/04 08:18:26;;;;;;;4.28;1.67;;;31.00;91.00;;;;;;5074291;28;20354;-67
2022/08/04 08:20:52;;;;;;;3.80;1.33;;;31.90;90.00;;;;;;5075462;28;20020;-67
2022/08/04 08:23:18;;;;;;;5.43;1.60;;;32.70;87.60;;;;;;5075459;28;20031;-69
2022/08/04 08:25:44;;;;;;;4.55;1.55;;;33.40;85.40;;;;;;5075455;28;20027;-67
2022/08/04 08:28:10;;;;;;;4.82;1.67;;;34.10;82.60;;;;;;5074918;28;20052;-67
2022/08/04 08:30:36;;;;;;;7.18;1.52;;;34.70;81.20;;;;;;5074690;28;20020;-70
2022/08/04 08:33:08;;;;;;;3.85;1.52;;;35.40;79.90;;;;;;5074799;28;20462;-68
2022/08/04 08:35:58;;;;;;;5.50;1.67;;;36.00;76.60;;;;;;5075228;28;20020;-69
2022/08/04 08:38:48;;;;;;;5.28;1.27;;;36.40;75.00;;;;;;5074000;28;20050;-68
2022/08/04 08:41:32;;;;;;;4.13;1.35;;;36.70;73.80;;;;;;5076035;28;20038;-68
2022/08/04 08:44:18;;;;;;;4.22;1.40;;;37.10;71.70;;;;;;5076000;28;20024;-68
2022/08/04 08:46:57;;;;;;;3.17;1.27;;;37.00;70.20;;;;;;5075052;28;20036;-70
2022/08/04 08:49:50;;;;;;;6.13;1.65;;;36.30;70.50;;;;;;5074780;28;20028;-70
2022/08/04 08:52:43;;;;;;;2.10;1.17;;;36.20;70.60;;;;;;5074536;28;20086;-67
2022/08/04 08:55:30;;;;;;;4.22;1.55;;;36.60;69.70;;;;;;5073255;28;20028;-67
2022/08/04 08:58:07;;;;;;;4.13;1.30;;;37.10;68.80;;;;;;5073938;28;20047;-67
2022/08/04 09:01:05;;;;;;;4.03;1.50;;;37.30;68.20;;;;;;5073993;28;20099;-68
2022/08/04 09:04:16;;;;;;;4.07;1.75;;;37.50;67.80;;;;;;5073536;28;20044;-66
2022/08/04 09:07:03;;;;;;;4.05;1.45;;;37.30;67.30;;;;;;5072840;28;20386;-66
2022/08/04 09:09:46;;;;;;;4.07;1.40;;;36.90;66.80;;;;;;5073984;28;20024;-72
2022/08/04 09:12:27;;;;;;;3.97;1.40;;;36.60;66.90;;;;;;5074202;28;20020;-67
2022/08/04 09:15:25;;;;;;;7.43;1.77;;;36.00;68.00;;;;;;5073986;28;20039;-66
2022/08/04 09:18:21;;;;;;;7.93;1.67;;;35.30;68.30;;;;;;5060922;28;20032;-70
2022/08/04 09:20:52;;;;;;;5.15;1.42;;;35.00;69.00;;;;;;5072990;28;20041;-69
2022/08/04 09:23:21;;;;;;;4.40;2.03;;;35.00;68.90;;;;;;5094103;28;20020;-69
2022/08/04 09:26:17;;;;;;;4.72;1.50;;;35.10;68.50;;;;;;5093949;28;20422;-67
2022/08/04 09:29:12;;;;;;;3.95;1.45;;;35.30;68.40;;;;;;5087854;28;20040;-72
2022/08/04 09:32:22;;;;;;;2.92;1.20;;;35.30;67.60;;;;;;5094305;28;20095;-67
2022/08/04 09:35:05;;;;;;;4.63;1.23;;;34.90;67.30;;;;;;5037260;28;20033;-67
2022/08/04 09:38:08;;;;;;;4.05;1.15;;;34.40;68.40;;;;;;5092890;28;20028;-71
2022/08/04 09:40:45;;;;;;;5.43;1.48;;;33.90;69.70;;;;;;5093567;28;20016;-70
2022/08/04 09:43:48;;;;;;;4.90;1.50;;;34.10;69.10;;;;;;5093749;28;20450;-69
2022/08/04 09:46:32;;;;;;;7.13;1.63;;;34.00;69.30;;;;;;5087953;28;20026;-66
2022/08/04 09:49:03;;;;;;;5.60;1.73;;;33.70;69.70;;;;;;5074875;28;20040;-70
2022/08/04 09:51:53;;;;;;;4.57;1.60;;;33.30;69.20;;;;;;5092484;28;20129;-67
2022/08/04 09:54:49;;;;;;;4.72;1.60;;;33.00;68.30;;;;;;5093665;28;20020;-66
2022/08/04 09:57:40;;;;;;;7.88;2.22;;;32.70;69.10;;;;;;5076559;28;20067;-67
2022/08/04 10:00:12;;;;;;;7.78;1.83;;;32.30;69.10;;;;;;5073054;28;20121;-68
2022/08/04 10:02:41;;;;;;;4.97;1.52;;;32.10;69.60;;;;;;5081303;28;20032;-68
2022/08/04 10:05:15;;;;;;;5.72;1.33;;;32.10;70.40;;;;;;5093130;28;20460;-67
2022/08/04 10:08:10;;;;;;;6.60;1.80;;;32.70;69.30;;;;;;5092873;28;20498;-67
2022/08/04 10:11:02;;;;;;;3.75;1.48;;;33.60;67.90;;;;;;5093031;28;20024;-67
2022/08/04 10:14:03;;;;;;;5.65;1.30;;;34.50;67.70;;;;;;5093501;28;20020;-67
2022/08/04 10:16:50;;;;;;;3.40;1.77;;;35.50;66.30;;;;;;5093268;28;20189;-71
2022/08/04 10:19:31;;;;;;;5.03;1.90;;;36.30;64.80;;;;;;5093142;28;20140;-67
2022/08/04 10:22:25;;;;;;;4.13;1.70;;;36.20;64.00;;;;;;5092742;28;20039;-72
2022/08/04 10:25:23;;;;;;;5.95;1.70;;;35.80;64.10;;;;;;5092653;28;20120;-69
2022/08/04 10:27:56;;;;;;;4.53;1.27;;;35.50;64.50;;;;;;5093022;28;20067;-66
2022/08/04 10:30:24;;;;;;;3.75;1.42;;;35.50;64.10;;;;;;5092828;28;20469;-70
2022/08/04 10:33:11;;;;;;;3.25;1.45;;;35.60;63.90;;;;;;5092798;28;20020;-67
2022/08/04 10:35:59;;;;;;;3.13;1.20;;;35.90;63.40;;;;;;5079969;28;20417;-69
2022/08/04 10:38:36;;;;;;;4.32;1.58;;;36.30;63.40;;;;;;5086726;28;20461;-68
2022/08/04 10:41:25;;;;;;;6.75;1.67;;;36.40;63.20;;;;;;5092656;28;20100;-66
2022/08/04 10:43:59;;;;;;;5.40;1.50;;;36.30;63.70;;;;;;5092567;28;20016;-69
2022/08/04 10:46:35;;;;;;;4.63;1.40;;;36.10;64.20;;;;;;5092524;28;20027;-67
2022/08/04 10:49:08;;;;;;;5.53;1.60;;;35.70;64.30;;;;;;5092365;28;20075;-69
2022/08/04 10:51:48;;;;;;;8.77;2.03;;;35.60;65.10;;;;;;5092462;28;20036;-67
2022/08/04 10:54:36;;;;;;;4.45;1.40;;;36.10;63.10;;;;;;5092528;28;20024;-67
2022/08/04 10:57:24;;;;;;;3.33;1.20;;;37.10;63.10;;;;;;5089054;28;20050;-69
2022/08/04 10:59:58;;;;;;;4.43;1.15;;;38.20;61.00;;;;;;5092147;28;20491;-72
2022/08/04 11:02:29;;;;;;;4.43;2.03;;;39.40;58.80;;;;;;5092319;28;20027;-67
2022/08/04 11:05:13;;;;;;;5.05;1.08;;;40.20;58.30;;;;;;5092768;28;20070;-68
2022/08/04 11:07:42;;;;;;;5.45;1.33;;;40.40;57.30;;;;;;5092686;28;20040;-67
2022/08/04 11:10:08;;;;;;;3.28;1.05;;;40.30;57.10;;;;;;5092234;28;20020;-70
2022/08/04 11:12:36;;;;;;;3.85;0.98;;;40.50;56.40;;;;;;5092699;28;20032;-67
2022/08/04 11:15:12;;;;;;;3.30;1.25;;;40.90;55.90;;;;;;5090865;28;20291;-67
2022/08/04 11:17:42;;;;;;;4.90;1.50;;;41.30;55.30;;;;;;5092382;28;20020;-68
2022/08/04 11:20:31;;;;;;;4.23;1.80;;;41.10;55.20;;;;;;5092407;28;20060;-68
2022/08/04 11:23:07;;;;;;;5.13;1.65;;;40.70;55.60;;;;;;5092794;28;20260;-67
2022/08/04 11:25:57;;;;;;;5.65;1.75;;;40.30;55.80;;;;;;5082400;28;20449;-67
2022/08/04 11:28:38;;;;;;;7.40;1.65;;;40.40;55.30;;;;;;5071536;28;20052;-70
2022/08/04 11:31:10;;;;;;;4.60;1.40;;;40.20;54.80;;;;;;5072160;28;20020;-71
2022/08/04 11:33:46;;;;;;;5.00;2.00;;;40.20;55.00;;;;;;5072163;28;20067;-67
2022/08/04 11:36:46;;;;;;;3.45;1.33;;;40.70;54.00;;;;;;5070648;28;20024;-67
2022/08/04 11:39:30;;;;;;;4.80;1.75;;;41.10;54.00;;;;;;5071083;28;20060;-69
2022/08/04 11:42:29;;;;;;;8.98;2.20;;;41.40;53.10;;;;;;5072153;28;20063;-66
2022/08/04 11:45:01;;;;;;;4.55;1.48;;;41.70;52.30;;;;;;5059047;28;20060;-68
2022/08/04 11:47:38;;;;;;;3.45;1.45;;;41.80;52.40;;;;;;5071888;28;20537;-67
2022/08/04 11:50:22;;;;;;;7.97;2.20;;;41.60;52.30;;;;;;5072202;28;20408;-66
2022/08/04 11:52:48;;;;;;;9.65;2.22;;;40.90;51.90;;;;;;5075358;28;20020;-67
2022/08/04 11:55:20;;;;;;;5.38;1.77;;;40.00;52.60;;;;;;5074664;28;20048;-66
2022/08/04 11:57:46;;;;;;;6.50;1.70;;;39.30;52.90;;;;;;5075355;28;20044;-67
2022/08/04 12:00:13;;;;;;;3.65;1.10;;;38.50;53.50;;;;;;5075347;28;20035;-69
2022/08/04 12:02:54;;;;;;;2.63;1.40;;;37.80;54.30;;;;;;5075380;28;20048;-69
2022/08/04 12:05:32;;;;;;;4.05;1.30;;;37.50;54.30;;;;;;5073508;28;21437;-67
2022/08/04 12:08:02;;;;;;;2.85;1.10;;;37.30;55.00;;;;;;5083484;28;20082;-67
2022/08/04 12:11:00;;;;;;;4.65;1.33;;;36.90;54.80;;;;;;5095096;28;20039;-68
2022/08/04 12:14:02;;;;;;;2.60;1.00;;;36.70;55.30;;;;;;5095413;28;20024;-68
2022/08/04 12:17:07;;;;;;;7.90;1.50;;;36.80;54.80;;;;;;5093863;28;20024;-71
2022/08/04 12:19:55;;;;;;;1.92;0.93;;;37.40;55.00;;;;;;5086129;28;20471;-67
2022/08/04 12:22:24;;;;;;;4.60;1.20;;;38.20;53.80;;;;;;5095408;28;20096;-70
2022/08/04 12:25:02;;;;;;;2.28;0.93;;;38.80;53.60;;;;;;5095151;28;20020;-67
2022/08/04 12:27:38;;;;;;;4.00;1.33;;;39.60;53.50;;;;;;5094938;28;20032;-67
2022/08/04 12:30:04;;;;;;;3.78;1.08;;;40.00;52.40;;;;;;5095256;28;20065;-67
2022/08/04 12:32:51;;;;;;;5.03;1.58;;;40.50;52.70;;;;;;5094912;28;20024;-68
2022/08/04 12:35:34;;;;;;;2.75;1.15;;;40.50;52.10;;;;;;5091387;28;20024;-67
2022/08/04 12:38:04;;;;;;;3.88;1.63;;;40.50;52.50;;;;;;5091682;28;20016;-66
2022/08/04 12:40:35;;;;;;;;;;;40.70;51.80;;;;;;5094237;28;20079;-67
2022/08/04 12:43:04;;;;;;;4.53;1.17;;;40.70;51.80;;;;;;5092269;28;20246;-69
2022/08/04 12:45:32;;;;;;;4.47;1.33;;;40.20;52.30;;;;;;5093768;28;20024;-67
2022/08/04 12:47:59;;;;;;;4.13;1.60;;;39.80;52.70;;;;;;5093324;28;20036;-66
2022/08/04 12:50:25;;;;;;;7.15;1.63;;;39.60;52.80;;;;;;5093416;28;20418;-66
2022/08/04 12:52:56;;;;;;;7.22;1.88;;;39.10;53.80;;;;;;5090547;28;20024;-66
2022/08/04 12:55:28;;;;;;;1.60;0.90;;;38.40;53.90;;;;;;5093544;28;20103;-70
2022/08/04 12:57:55;;;;;;;4.32;1.90;;;37.90;54.40;;;;;;5090765;28;20032;-66
2022/08/04 13:00:32;;;;;;;4.20;1.65;;;37.60;55.50;;;;;;5092544;28;20035;-66
2022/08/04 13:03:10;;;;;;;6.13;1.40;;;37.10;57.80;;;;;;5091012;28;20015;-66
2022/08/04 13:05:38;;;;;;;6.43;1.50;;;36.60;58.10;;;;;;5090581;28;20016;-66
2022/08/04 13:08:05;;;;;;;4.70;1.40;;;36.10;59.30;;;;;;5092860;28;20119;-70
2022/08/04 13:10:37;;;;;;;6.47;1.35;;;35.70;59.20;;;;;;5092865;28;20077;-66
2022/08/04 13:13:04;;;;;;;2.45;0.88;;;35.30;59.60;;;;;;5092852;28;20031;-67
2022/08/04 13:15:32;;;;;;;3.22;1.08;;;34.80;58.70;;;;;;5092506;28;20062;-67
2022/08/04 13:18:02;;;;;;;3.50;1.40;;;34.30;58.90;;;;;;5092703;28;20100;-67
2022/08/04 13:20:32;;;;;;;5.33;1.50;;;33.90;59.80;;;;;;5092757;28;20016;-66
2022/08/04 13:23:06;;;;;;;5.00;1.60;;;33.60;64.00;;;;;;5092309;28;20028;-67
2022/08/04 13:25:34;;;;;;;4.03;1.42;;;33.20;62.70;;;;;;5089772;28;20016;-69
2022/08/04 13:28:01;;;;;;;4.72;1.10;;;32.90;62.60;;;;;;5092632;28;20402;-67
2022/08/04 13:30:29;;;;;;;4.75;1.60;;;32.60;62.30;;;;;;5092682;28;20181;-69
2022/08/04 13:33:01;;;;;;;7.00;1.60;;;32.40;63.70;;;;;;5092729;28;20110;-67
2022/08/04 13:35:27;;;;;;;;;;;32.20;63.90;;;;;;5093122;28;20087;-67
2022/08/04 13:37:54;;;;;;;7.68;2.65;;;32.10;63.80;;;;;;5091446;28;19904;-68
2022/08/04 13:40:23;;;;;;;5.28;1.75;;;31.90;64.20;;;;;;5091343;28;20469;-67